Main page
METAR-TAF:

METAR-TAF

Airports :

Locarno Airport

Locarno, Switzerland

latitude: 46-09-55N, longitude: 8-52-40E, elevation: 198 m

Current weather observation

The report was made 58 minutes ago, at 00:20 UTC
Wind 1 kt from variable directions
Temperature 11°C
Humidity 100%
Pressure 1008 hPa
Visibility: 3000 m
Scattered clouds at a height of 800 ft
Broken clouds at a height of 2400 ft
rain, mist

METAR: LSZL 240020Z AUTO VRB01KT 3000NDV RA BR SCT008 BKN024 11/11 Q1008 RMK

Time: 03:18 (01:18 UTC)

Forecast

The report was made 7 hours and 53 minutes ago, at 17:25 UTC
Forecast valid from 23 at 18 UTC to 24 at 03 UTC
Wind 2 kt from variable directions
Visibility: 7000 m
Few clouds at a height of 800 ft
Overcast at a height of 5000 ft
light rain
Temporary
from 23 at 18 UTC to 24 at 03 UTC
rain
Probability 30%
from 23 at 18 UTC to 24 at 03 UTC
Visibility: 4500 m
Broken clouds at a height of 1400 ft

TAF: LSZL 231725Z 2318/2403 VRB02KT 7000 -RA FEW008 OVC050 TEMPO 2318/2403 RA PROB30 2318/2403 4500 BKN014

Weather observations and forecasts of more than 4000 airports (METAR and TAF reports).

The available stations are represented by yellow and red dots on the map.

Hover mouse over dot to see the name of the station.

Then click to see weather observations and forecasts.

To change the map : click on the green buttons with a black cross to zoom in, on the green button with a dash to zoom out, or on the green arrows for adjacent maps.


METAR-TAF: